Time;durP1;ratioP1;P1;durP2;ratioP2;P2;SDS_P1;SDS_P2;PMS_P1;PMS_P2;Temp;Humidity;BMP_temperature;BMP_pressure;BME280_temperature;BME280_humidity;BME280_pressure;Samples;Min_cycle;Max_cycle;Signal;HPM_P1;HPM_P2
2022/10/15 00:01:31;;;;;;;;;;;;;;;11.69;94.56;100718.72;5047355;28;20818;-62
2022/10/15 00:03:58;;;;;;;;;;;;;;;11.65;94.17;100722.75;5049079;28;19921;-62
2022/10/15 00:06:23;;;;;;;;;;;;;;;11.61;94.50;100721.47;5048735;28;19943;-62
2022/10/15 00:08:49;;;;;;;;;;;;;;;11.56;94.38;100723.81;5047681;28;19921;-62
2022/10/15 00:11:15;;;;;;;;;;;;;;;11.52;94.43;100727.00;5048022;28;19921;-62
2022/10/15 00:13:41;;;;;;;;;;;;;;;11.45;93.97;100722.41;5047612;28;20011;-62
2022/10/15 00:16:07;;;;;;;;;;;;;;;11.42;94.08;100720.13;5044125;28;20051;-62
2022/10/15 00:18:32;;;;;;;;;;;;;;;11.42;94.27;100721.94;5047947;28;20228;-62
2022/10/15 00:20:58;;;;;;;;;;;;;;;11.41;94.39;100713.16;5043926;28;20003;-62
2022/10/15 00:23:23;;;;;;;;;;;;;;;11.40;94.15;100714.16;5043766;28;19920;-62
2022/10/15 00:25:48;;;;;;;;;;;;;;;11.39;94.17;100717.81;5043769;28;19925;-62
2022/10/15 00:28:14;;;;;;;;;;;;;;;11.40;94.20;100718.66;5045382;28;19923;-62
2022/10/15 00:30:39;;;;;;;;;;;;;;;11.41;94.43;100715.81;5047364;28;19917;-62
2022/10/15 00:33:04;;;;;;;;;;;;;;;11.43;94.20;100721.78;5043301;28;19956;-62
2022/10/15 00:35:29;;;;;;;;;;;;;;;11.44;94.19;100720.75;5048229;28;19921;-62
2022/10/15 00:37:54;;;;;;;;;;;;;;;11.44;94.39;100731.41;5046494;28;19932;-62
2022/10/15 00:40:20;;;;;;;;;;;;;;;11.46;94.23;100723.25;5044756;28;19917;-62
2022/10/15 00:42:45;;;;;;;;;;;;;;;11.48;94.37;100719.41;5052114;28;19967;-62
2022/10/15 00:45:12;;;;;;;;;;;;;;;11.54;94.40;100732.97;5041253;28;19920;-62
2022/10/15 00:47:43;;;;;;;;;;;;;;;11.58;94.72;100734.31;5044169;28;19924;-62
2022/10/15 00:50:11;;;;;;;;;;;;;;;11.59;94.89;100728.78;5044357;28;19917;-62
2022/10/15 00:52:40;;;;;;;;;;;;;;;11.63;95.14;100723.94;5044011;28;19916;-62
2022/10/15 00:55:08;;;;;;;;;;;;;;;11.65;95.30;100732.56;5042339;28;19924;-62
2022/10/15 00:57:33;;;;;;;;;;;;;;;11.65;95.46;100725.41;5048832;28;19920;-62
2022/10/15 01:00:01;;;;;;;;;;;;;;;11.66;95.85;100724.41;5045441;28;20312;-62
2022/10/15 01:02:26;;;;;;;;;;;;;;;11.67;96.07;100719.91;5044361;28;19921;-62
2022/10/15 01:04:52;;;;;;;;;;;;;;;11.67;96.74;100719.91;5040052;28;19916;-62
2022/10/15 01:07:17;;;;;;;;;;;;;;;11.65;96.66;100724.59;5044746;28;19917;-62
2022/10/15 01:09:42;;;;;;;;;;;;;;;11.64;97.09;100721.09;5045322;28;19956;-62
2022/10/15 01:12:18;;;;;;;;;;;;;;;11.65;97.22;100724.59;5055188;28;19955;-62
2022/10/15 01:14:52;;;;;;;;;;;;;;;11.65;97.47;100711.28;5050639;28;19920;-63
2022/10/15 01:17:26;;;;;;;;;;;;;;;11.67;98.19;100711.94;5043588;28;19924;-62
2022/10/15 01:20:12;;;;;;;;;;;;;;;11.70;98.43;100701.75;5045313;28;19924;-62
2022/10/15 01:22:46;;;;;;;;;;;;;;;11.72;98.79;100702.41;5048861;28;19994;-62
2022/10/15 01:25:30;;;;;;;;;;;;;;;11.74;99.16;100692.41;5044659;28;19998;-62
2022/10/15 01:27:57;;;;;;;;;;;;;;;11.76;99.59;100685.06;5042794;28;20367;-62
2022/10/15 01:30:32;;;;;;;;;;;;;;;11.76;99.93;100682.41;5052450;28;20447;-62
2022/10/15 01:33:01;;;;;;;;;;;;;;;11.79;99.97;100687.38;5047727;28;19923;-62
2022/10/15 01:35:38;;;;;;;;;;;;;;;11.82;100.00;100686.19;5049018;28;19920;-62
2022/10/15 01:38:20;;;;;;;;;;;;;;;11.84;100.00;100681.50;5050143;28;19928;-61
2022/10/15 01:40:51;;;;;;;;;;;;;;;11.86;100.00;100679.53;5038478;28;20031;-62
2022/10/15 01:43:21;;;;;;;;;;;;;;;11.86;100.00;100690.16;5044621;28;20475;-61
2022/10/15 01:45:52;;;;;;;;;;;;;;;11.88;100.00;100689.97;5046630;28;19921;-62
2022/10/15 01:48:18;;;;;;;;;;;;;;;11.89;100.00;100686.31;5044862;28;20055;-62
2022/10/15 01:50:46;;;;;;;;;;;;;;;11.90;100.00;100693.28;5045716;28;20825;-61
2022/10/15 01:53:18;;;;;;;;;;;;;;;11.92;100.00;100685.94;5050371;28;19960;-62
2022/10/15 01:55:44;;;;;;;;;;;;;;;11.91;100.00;100679.78;5045899;28;20012;-61
2022/10/15 01:58:10;;;;;;;;;;;;;;;11.92;100.00;100681.44;5049768;28;20051;-62
2022/10/15 02:00:36;;;;;;;;;;;;;;;11.94;100.00;100678.59;5041757;28;20016;-62
2022/10/15 02:03:03;;;;;;;;;;;;;;;11.94;100.00;100676.75;5046823;28;19978;-62
2022/10/15 02:05:33;;;;;;;;;;;;;;;11.94;100.00;100674.09;5044531;28;20010;-62
2022/10/15 02:08:10;;;;;;;;;;;;;;;11.96;100.00;100671.25;5049424;28;19917;-62
2022/10/15 02:10:48;;;;;;;;;;;;;;;11.97;100.00;100668.41;5047970;28;20427;-62
2022/10/15 02:13:16;;;;;;;;;;;;;;;11.98;100.00;100663.91;5039563;28;19925;-61
2022/10/15 02:15:56;;;;;;;;;;;;;;;11.99;100.00;100669.03;5043637;28;20051;-61
2022/10/15 02:18:28;;;;;;;;;;;;;;;11.97;100.00;100657.75;5052244;28;19928;-62
2022/10/15 02:20:53;;;;;;;;;;;;;;;11.99;100.00;100663.72;5053039;28;19932;-62
2022/10/15 02:23:25;;;;;;;;;;;;;;;11.99;100.00;100658.41;5033689;28;19928;-62
2022/10/15 02:25:52;;;;;;;;;;;;;;;11.99;100.00;100650.41;5046197;28;19925;-62
2022/10/15 02:28:17;;;;;;;;;;;;;;;11.99;100.00;100649.59;5045116;28;20019;-62
2022/10/15 02:30:44;;;;;;;;;;;;;;;11.99;100.00;100649.59;5048828;28;20023;-62
2022/10/15 02:33:10;;;;;;;;;;;;;;;11.99;100.00;100645.09;5050459;28;19972;-62
2022/10/15 02:35:36;;;;;;;;;;;;;;;12.00;100.00;100656.56;5049590;28;20510;-62
2022/10/15 02:38:04;;;;;;;;;;;;;;;11.99;100.00;100646.94;5048651;28;20434;-62
2022/10/15 02:40:31;;;;;;;;;;;;;;;11.99;100.00;100639.78;5052679;28;19922;-62
2022/10/15 02:42:58;;;;;;;;;;;;;;;12.00;100.00;100632.63;5052900;28;20002;-61
2022/10/15 02:45:23;;;;;;;;;;;;;;;12.00;100.00;100627.28;5047758;28;19970;-62
2022/10/15 02:47:48;;;;;;;;;;;;;;;12.01;100.00;100621.78;5052651;28;20402;-62
2022/10/15 02:50:13;;;;;;;;;;;;;;;12.04;100.00;100628.56;5045142;28;19917;-62
2022/10/15 02:52:38;;;;;;;;;;;;;;;12.04;100.00;100621.41;5048751;28;20494;-62
2022/10/15 02:55:04;;;;;;;;;;;;;;;12.05;100.00;100617.72;5054537;28;19924;-62
2022/10/15 02:57:30;;;;;;;;;;;;;;;12.06;100.00;100615.91;5054470;28;20001;-62
2022/10/15 02:59:55;;;;;;;;;;;;;;;12.06;100.00;100611.41;5048794;28;19925;-61
2022/10/15 03:02:20;;;;;;;;;;;;;;;12.06;100.00;100606.06;5050291;28;19928;-61
2022/10/15 03:04:45;;;;;;;;;;;;;;;12.07;100.00;100610.38;5045719;28;20594;-62
2022/10/15 03:07:10;;;;;;;;;;;;;;;12.07;100.00;100604.25;5048763;28;19923;-62
2022/10/15 03:09:36;;;;;;;;;;;;;;;12.08;100.00;100605.88;5047917;28;19924;-61
2022/10/15 03:12:01;;;;;;;;;;;;;;;12.07;100.00;100599.75;5047549;28;21508;-61
2022/10/15 03:14:26;;;;;;;;;;;;;;;12.08;100.00;100603.22;5045580;28;19921;-62
2022/10/15 03:16:51;;;;;;;;;;;;;;;12.08;100.00;100603.22;5052896;28;19923;-62
2022/10/15 03:19:17;;;;;;;;;;;;;;;12.07;100.00;100599.75;5050269;28;20402;-62
2022/10/15 03:21:42;;;;;;;;;;;;;;;12.06;100.00;100602.59;5048535;28;19917;-62
2022/10/15 03:24:07;;;;;;;;;;;;;;;12.04;100.00;100608.09;5060043;28;19920;-62
2022/10/15 03:26:32;;;;;;;;;;;;;;;12.03;100.00;100609.13;5051378;28;19960;-62
2022/10/15 03:28:57;;;;;;;;;;;;;;;12.02;100.00;100612.78;5052115;28;19916;-62
2022/10/15 03:31:22;;;;;;;;;;;;;;;11.99;100.00;100613.16;5046679;28;19921;-62
2022/10/15 03:33:48;;;;;;;;;;;;;;;11.97;100.00;100611.69;5056737;28;20289;-61
2022/10/15 03:36:13;;;;;;;;;;;;;;;11.96;100.00;100607.38;5046636;28;20011;-62
2022/10/15 03:38:38;;;;;;;;;;;;;;;11.96;100.00;100605.56;5052773;28;20346;-62
2022/10/15 03:41:03;;;;;;;;;;;;;;;11.95;100.00;100603.91;5045488;28;19920;-62
2022/10/15 03:43:28;;;;;;;;;;;;;;;11.95;100.00;100598.56;5050479;28;19928;-62
2022/10/15 03:45:54;;;;;;;;;;;;;;;11.93;100.00;100592.63;5054841;28;19921;-62
2022/10/15 03:48:19;;;;;;;;;;;;;;;11.93;100.00;100592.63;5050485;28;19986;-61
2022/10/15 03:50:44;;;;;;;;;;;;;;;11.95;100.00;100589.78;5046245;28;20342;-62
2022/10/15 03:53:10;;;;;;;;;;;;;;;11.95;100.00;100584.44;5045718;28;19916;-61
2022/10/15 03:55:35;;;;;;;;;;;;;;;11.93;100.00;100586.47;5048622;28;19920;-62
2022/10/15 03:58:00;;;;;;;;;;;;;;;11.92;100.00;100590.97;5049782;28;20422;-62
2022/10/15 04:00:26;;;;;;;;;;;;;;;11.92;100.00;100590.13;5047951;28;19917;-62
2022/10/15 04:02:51;;;;;;;;;;;;;;;11.90;100.00;100586.84;5054556;28;19921;-62
2022/10/15 04:05:16;;;;;;;;;;;;;;;11.89;100.00;100579.88;5049717;28;19967;-62
2022/10/15 04:07:42;;;;;;;;;;;;;;;11.89;100.00;100590.50;5046879;28;19917;-61
2022/10/15 04:10:07;;;;;;;;;;;;;;;11.89;100.00;100582.53;5050124;28;19931;-62
2022/10/15 04:12:32;;;;;;;;;;;;;;;11.88;100.00;100591.53;5057600;28;19931;-61
2022/10/15 04:14:57;;;;;;;;;;;;;;;11.87;100.00;100593.38;5051001;28;19971;-62
2022/10/15 04:17:22;;;;;;;;;;;;;;;11.87;100.00;100596.03;5049272;28;19925;-61
2022/10/15 04:19:48;;;;;;;;;;;;;;;11.88;100.00;100599.50;5047857;28;19917;-61
2022/10/15 04:22:13;;;;;;;;;;;;;;;11.88;100.00;100602.16;5055426;28;20065;-62
2022/10/15 04:24:38;;;;;;;;;;;;;;;11.91;100.00;100601.78;5046642;28;19917;-62
2022/10/15 04:27:04;;;;;;;;;;;;;;;11.94;100.00;100601.44;5049958;28;21013;-61
2022/10/15 04:29:29;;;;;;;;;;;;;;;11.96;100.00;100604.72;5044699;28;19929;-62
2022/10/15 04:31:54;;;;;;;;;;;;;;;11.97;100.00;100609.84;5044992;28;19995;-62
2022/10/15 04:34:19;;;;;;;;;;;;;;;12.01;100.00;100603.16;5046585;28;19928;-62
2022/10/15 04:36:45;;;;;;;;;;;;;;;12.05;100.00;100598.28;5045027;28;20299;-62
2022/10/15 04:39:10;;;;;;;;;;;;;;;12.08;100.00;100606.72;5046455;28;19916;-62
2022/10/15 04:41:35;;;;;;;;;;;;;;;12.10;100.00;100595.88;5047089;28;19917;-62
2022/10/15 04:44:00;;;;;;;;;;;;;;;12.12;100.00;100598.34;5048333;28;19973;-62
2022/10/15 04:46:25;;;;;;;;;;;;;;;12.14;100.00;100594.50;5047138;28;19921;-61
2022/10/15 04:48:52;;;;;;;;;;;;;;;12.16;100.00;100600.47;5041289;28;19925;-62
2022/10/15 04:51:19;;;;;;;;;;;;;;;12.19;100.00;100600.09;5048609;28;19917;-61
2022/10/15 04:53:44;;;;;;;;;;;;;;;12.19;100.00;100596.63;5046023;28;19921;-62
2022/10/15 04:56:12;;;;;;;;;;;;;;;12.21;100.00;100599.91;5045586;28;19924;-62
2022/10/15 04:58:37;;;;;;;;;;;;;;;12.22;100.00;100599.72;5042482;28;20381;-62
2022/10/15 05:01:07;;;;;;;;;;;;;;;12.23;100.00;100601.38;5046389;28;19937;-62
2022/10/15 05:03:33;;;;;;;;;;;;;;;12.25;100.00;100596.69;5041187;28;19921;-62
2022/10/15 05:06:02;;;;;;;;;;;;;;;12.28;100.00;100600.81;5047789;28;19924;-62
2022/10/15 05:08:32;;;;;;;;;;;;;;;12.31;100.00;100598.59;5049232;28;20013;-62
2022/10/15 05:11:00;;;;;;;;;;;;;;;12.32;100.00;100597.56;5042471;28;20010;-62
2022/10/15 05:13:26;;;;;;;;;;;;;;;12.34;100.00;100600.88;5044331;28;19971;-62
2022/10/15 05:15:51;;;;;;;;;;;;;;;12.36;100.00;100598.03;5044556;28;19974;-62
2022/10/15 05:18:16;;;;;;;;;;;;;;;12.37;100.00;100605.81;5047664;28;20027;-62
2022/10/15 05:20:41;;;;;;;;;;;;;;;12.39;100.00;100605.63;5043325;28;19917;-62
2022/10/15 05:23:06;;;;;;;;;;;;;;;12.39;100.00;100600.31;5044063;28;20001;-62
2022/10/15 05:25:32;;;;;;;;;;;;;;;12.38;100.00;100590.66;5043530;28;20557;-63
2022/10/15 05:27:57;;;;;;;;;;;;;;;12.43;100.00;100601.56;5041420;28;19956;-62
2022/10/15 05:30:22;;;;;;;;;;;;;;;12.43;100.00;100604.25;5039945;28;19967;-62
2022/10/15 05:32:50;;;;;;;;;;;;;;;12.46;100.00;100605.72;5038996;28;20412;-62
2022/10/15 05:35:15;;;;;;;;;;;;;;;12.49;100.00;100602.69;5041784;28;19920;-62
2022/10/15 05:37:40;;;;;;;;;;;;;;;12.50;100.00;100602.50;5042354;28;19924;-62
2022/10/15 05:40:06;;;;;;;;;;;;;;;12.51;100.00;100606.81;5049042;28;20347;-62
2022/10/15 05:42:31;;;;;;;;;;;;;;;12.51;100.00;100596.16;5049527;28;19924;-62
2022/10/15 05:44:56;;;;;;;;;;;;;;;12.53;100.00;100601.28;5045523;28;19972;-62
2022/10/15 05:47:21;;;;;;;;;;;;;;;12.52;100.00;100595.13;5047296;28;19924;-62
2022/10/15 05:49:47;;;;;;;;;;;;;;;12.53;100.00;100599.44;5043335;28;19939;-62
2022/10/15 05:52:12;;;;;;;;;;;;;;;12.53;100.00;100593.31;5044181;28;20295;-62
2022/10/15 05:54:37;;;;;;;;;;;;;;;12.55;100.00;100601.94;5048320;28;19991;-62
2022/10/15 05:57:02;;;;;;;;;;;;;;;12.55;100.00;100597.44;5045765;28;19921;-63
2022/10/15 05:59:27;;;;;;;;;;;;;;;12.55;100.00;100596.59;5047525;28;20273;-62
2022/10/15 06:01:52;;;;;;;;;;;;;;;12.54;100.00;100593.13;5050311;28;19920;-62
2022/10/15 06:04:18;;;;;;;;;;;;;;;12.55;100.00;100596.59;5049198;28;19962;-62
2022/10/15 06:06:43;;;;;;;;;;;;;;;12.56;100.00;100607.06;5041107;28;20284;-62
2022/10/15 06:09:08;;;;;;;;;;;;;;;12.52;100.00;100584.50;5045863;28;19916;-63
2022/10/15 06:11:34;;;;;;;;;;;;;;;12.56;100.00;100598.25;5049389;28;20055;-62
2022/10/15 06:13:59;;;;;;;;;;;;;;;12.57;100.00;100597.22;5043690;28;19917;-62
2022/10/15 06:16:25;;;;;;;;;;;;;;;12.57;100.00;100600.72;5039732;28;19924;-62
2022/10/15 06:18:50;;;;;;;;;;;;;;;12.58;100.00;100597.03;5044271;28;19928;-62
2022/10/15 06:21:16;;;;;;;;;;;;;;;12.57;100.00;100594.56;5041863;28;19967;-62
2022/10/15 06:23:41;;;;;;;;;;;;;;;12.56;100.00;100593.75;5045540;28;20380;-62
2022/10/15 06:26:07;;;;;;;;;;;;;;;12.58;100.00;100597.03;5042677;28;19963;-62
2022/10/15 06:28:33;;;;;;;;;;;;;;;12.58;100.00;100598.88;5048257;28;20039;-62
2022/10/15 06:30:58;;;;;;;;;;;;;;;12.59;100.00;100597.88;5046770;28;20492;-62
2022/10/15 06:33:24;;;;;;;;;;;;;;;12.58;100.00;100602.38;5049383;28;20502;-62
2022/10/15 06:35:49;;;;;;;;;;;;;;;12.59;100.00;100601.34;5048653;28;19940;-62
2022/10/15 06:38:14;;;;;;;;;;;;;;;12.59;100.00;100593.38;5054683;28;19912;-62
2022/10/15 06:40:39;;;;;;;;;;;;;;;12.59;100.00;100606.69;5051356;28;19954;-62
2022/10/15 06:43:06;;;;;;;;;;;;;;;12.60;100.00;100600.34;5048254;28;19913;-61
2022/10/15 06:45:32;;;;;;;;;;;;;;;12.62;100.00;100600.16;5049970;28;19975;-62
2022/10/15 06:47:57;;;;;;;;;;;;;;;12.62;100.00;100592.16;5048909;28;20006;-62
2022/10/15 06:50:22;;;;;;;;;;;;;;;12.64;100.00;100587.47;5046140;28;19928;-62
2022/10/15 06:52:47;;;;;;;;;;;;;;;12.64;100.00;100596.28;5039707;28;20093;-62
2022/10/15 06:55:12;;;;;;;;;;;;;;;12.65;100.00;100595.25;5044444;28;19917;-62
2022/10/15 06:57:38;;;;;;;;;;;;;;;12.68;100.00;100602.03;5044565;28;20043;-62
2022/10/15 07:00:03;;;;;;;;;;;;;;;12.68;100.00;100607.38;5051681;28;20019;-62
2022/10/15 07:02:28;;;;;;;;;;;;;;;12.69;100.00;100604.53;5054110;28;20047;-62
2022/10/15 07:04:54;;;;;;;;;;;;;;;12.69;100.00;100599.19;5054081;28;20410;-62
2022/10/15 07:07:19;;;;;;;;;;;;;;;12.73;100.00;100596.19;5046339;28;19924;-62
2022/10/15 07:09:46;;;;;;;;;;;;;;;12.75;100.00;100597.63;5052119;28;19992;-62
2022/10/15 07:12:11;;;;;;;;;;;;;;;12.75;100.00;100596.81;5059847;28;19912;-62
2022/10/15 07:14:36;;;;;;;;;;;;;;;12.76;100.00;100599.28;5052704;28;20062;-62
2022/10/15 07:17:01;;;;;;;;;;;;;;;12.78;100.00;100601.75;5049309;28;19967;-62
2022/10/15 07:19:27;;;;;;;;;;;;;;;12.78;100.00;100604.41;5049209;28;19921;-62
2022/10/15 07:21:52;;;;;;;;;;;;;;;12.77;100.00;100600.94;5050872;28;19963;-62
2022/10/15 07:24:17;;;;;;;;;;;;;;;12.77;100.00;100605.44;5043687;28;19925;-62
2022/10/15 07:26:42;;;;;;;;;;;;;;;12.77;100.00;100605.44;5049429;28;19943;-62
2022/10/15 07:29:08;;;;;;;;;;;;;;;12.80;100.00;100599.72;5044813;28;19917;-63
2022/10/15 07:31:33;;;;;;;;;;;;;;;12.83;100.00;100596.66;5041013;28;19986;-63
2022/10/15 07:33:58;;;;;;;;;;;;;;;12.86;100.00;100580.28;5043608;28;20379;-63
2022/10/15 07:36:24;;;;;;;;;;;;;;;12.92;100.00;100587.50;5042133;28;20036;-63
2022/10/15 07:38:49;;;;;;;;;;;;;;;12.99;100.00;100588.38;5042620;28;20388;-62
2022/10/15 07:41:14;;;;;;;;;;;;;;;13.05;100.00;100581.50;5047889;28;20531;-63
2022/10/15 07:43:39;;;;;;;;;;;;;;;13.07;100.00;100574.13;5046061;28;19912;-62
2022/10/15 07:46:05;;;;;;;;;;;;;;;13.09;100.00;100567.56;5058536;28;20410;-62
2022/10/15 07:48:30;;;;;;;;;;;;;;;13.15;100.00;100566.78;5053600;28;19921;-62
2022/10/15 07:50:56;;;;;;;;;;;;;;;13.21;100.00;100574.03;5056805;28;19913;-62
2022/10/15 07:53:22;;;;;;;;;;;;;;;13.24;100.00;100568.31;5044832;28;19933;-61
2022/10/15 07:55:47;;;;;;;;;;;;;;;13.28;100.00;100566.91;5047093;28;19928;-61
2022/10/15 07:58:12;;;;;;;;;;;;;;;13.32;100.00;100562.84;5048881;28;20000;-60
2022/10/15 08:00:37;;;;;;;;;;;;;;;13.40;100.00;100556.53;5048656;28;19963;-62
2022/10/15 08:03:02;;;;;;;;;;;;;;;13.46;100.00;100557.59;5047733;28;19978;-62
2022/10/15 08:05:28;;;;;;;;;;;;;;;13.52;100.00;100562.13;5049860;28;19917;-61
2022/10/15 08:07:53;;;;;;;;;;;;;;;13.54;100.00;100560.91;5048720;28;19920;-61
2022/10/15 08:10:18;;;;;;;;;;;;;;;13.57;100.00;100562.38;5050246;28;19967;-60
2022/10/15 08:12:43;;;;;;;;;;;;;;;13.61;100.00;100563.66;5043774;28;19920;-61
2022/10/15 08:15:09;;;;;;;;;;;;;;;13.64;100.00;100552.56;5038103;28;19920;-61
2022/10/15 08:17:34;;;;;;;;;;;;;;;13.72;100.00;100547.06;5051450;28;19929;-62
2022/10/15 08:19:59;;;;;;;;;;;;;;;13.84;100.00;100549.97;5046501;28;19951;-61
2022/10/15 08:22:24;;;;;;;;;;;;;;;13.92;100.00;100553.31;5042741;28;19963;-62
2022/10/15 08:24:51;;;;;;;;;;;;;;;13.98;100.00;100550.88;5041256;28;19922;-62
2022/10/15 08:27:16;;;;;;;;;;;;;;;14.06;100.00;100553.34;5043263;28;20372;-62
2022/10/15 08:29:41;;;;;;;;;;;;;;;14.08;100.00;100557.47;5042740;28;19916;-62
2022/10/15 08:32:06;;;;;;;;;;;;;;;14.09;100.00;100553.78;5041570;28;20486;-62
2022/10/15 08:34:32;;;;;;;;;;;;;;;14.06;100.00;100545.34;5046146;28;19920;-61
2022/10/15 08:36:57;;;;;;;;;;;;;;;14.04;100.00;100550.06;5046328;28;19925;-61
2022/10/15 08:39:22;;;;;;;;;;;;;;;14.06;100.00;100542.69;5044606;28;19921;-62
2022/10/15 08:41:52;;;;;;;;;;;;;;;14.10;100.00;100542.06;5044471;28;19924;-61
2022/10/15 08:44:24;;;;;;;;;;;;;;;14.10;99.86;100535.91;5043629;28;20321;-61
2022/10/15 08:46:52;;;;;;;;;;;;;;;14.12;100.00;100534.69;5053252;28;20419;-62
2022/10/15 08:49:26;;;;;;;;;;;;;;;14.14;100.00;100529.13;5049559;28;19920;-62
2022/10/15 08:51:55;;;;;;;;;;;;;;;14.20;99.83;100539.84;5049109;28;20418;-61
2022/10/15 08:54:21;;;;;;;;;;;;;;;14.24;99.80;100540.28;5047916;28;19951;-62
2022/10/15 08:56:49;;;;;;;;;;;;;;;14.25;99.49;100531.22;5044995;28;20422;-61
2022/10/15 08:59:30;;;;;;;;;;;;;;;14.30;99.52;100525.28;5048092;28;19920;-62
2022/10/15 09:01:58;;;;;;;;;;;;;;;14.37;99.74;100521.59;5050230;28;19923;-62
2022/10/15 09:04:36;;;;;;;;;;;;;;;14.43;99.78;100512.78;5053396;28;19916;-62
2022/10/15 09:07:17;;;;;;;;;;;;;;;14.48;99.56;100512.19;5044112;28;19920;-61
2022/10/15 09:09:46;;;;;;;;;;;;;;;14.52;99.42;100513.44;5046460;28;19917;-62
2022/10/15 09:12:35;;;;;;;;;;;;;;;14.54;98.82;100506.84;5050258;28;19916;-62
2022/10/15 09:15:02;;;;;;;;;;;;;;;14.57;99.12;100501.09;5048565;28;19927;-62
2022/10/15 09:17:30;;;;;;;;;;;;;;;14.58;98.69;100507.28;5047730;28;19984;-62
2022/10/15 09:19:56;;;;;;;;;;;;;;;14.59;98.56;100500.06;5042329;28;19939;-63
2022/10/15 09:22:23;;;;;;;;;;;;;;;14.59;98.63;100497.41;5045111;28;20416;-63
2022/10/15 09:24:49;;;;;;;;;;;;;;;14.59;98.66;100500.91;5047675;28;20039;-63
2022/10/15 09:27:21;;;;;;;;;;;;;;;14.60;98.81;100502.53;5048142;28;20426;-63
2022/10/15 09:29:48;;;;;;;;;;;;;;;14.60;98.36;100485.69;5044208;28;19924;-63
2022/10/15 09:32:26;;;;;;;;;;;;;;;14.57;98.21;100490.41;5044484;28;19917;-63
2022/10/15 09:35:04;;;;;;;;;;;;;;;14.60;98.29;100496.38;5042780;28;19917;-63
2022/10/15 09:37:34;;;;;;;;;;;;;;;14.63;98.25;100485.28;5047564;28;19917;-63
2022/10/15 09:39:59;;;;;;;;;;;;;;;14.63;98.64;100482.59;5043739;28;19956;-63
2022/10/15 09:42:32;;;;;;;;;;;;;;;14.64;98.61;100482.38;5048502;28;19964;-63
2022/10/15 09:44:59;;;;;;;;;;;;;;;14.65;98.54;100485.88;5045411;28;19929;-63
2022/10/15 09:47:24;;;;;;;;;;;;;;;14.65;98.42;100484.03;5044947;28;20003;-63
2022/10/15 09:49:50;;;;;;;;;;;;;;;14.67;98.66;100483.81;5045723;28;20008;-63
2022/10/15 09:52:18;;;;;;;;;;;;;;;14.68;98.59;100477.44;5046381;28;20003;-62
2022/10/15 09:54:47;;;;;;;;;;;;;;;14.67;98.42;100476.63;5046337;28;19916;-62
2022/10/15 09:57:14;;;;;;;;;;;;;;;14.69;98.62;100474.56;5038661;28;19979;-63
2022/10/15 09:59:50;;;;;;;;;;;;;;;14.69;98.70;100474.56;5038017;28;20355;-63
2022/10/15 10:02:18;;;;;;;;;;;;;;;14.68;98.67;100467.59;5047511;28;20396;-63
2022/10/15 10:04:43;;;;;;;;;;;;;;;14.67;98.62;100468.59;5049852;28;19913;-64
2022/10/15 10:07:26;;;;;;;;;;;;;;;14.65;98.65;100469.84;5047999;28;20284;-63
2022/10/15 10:09:53;;;;;;;;;;;;;;;14.66;98.64;100464.28;5051231;28;20015;-63
2022/10/15 10:12:24;;;;;;;;;;;;;;;14.66;98.64;100461.63;5047936;28;19917;-63
2022/10/15 10:14:55;;;;;;;;;;;;;;;14.69;98.75;100471.06;5054465;28;19931;-64
2022/10/15 10:17:28;;;;;;;;;;;;;;;14.69;99.14;100461.19;5047762;28;19963;-63
2022/10/15 10:20:08;;;;;;;;;;;;;;;14.70;99.08;100454.84;5051759;28;19947;-63
2022/10/15 10:22:44;;;;;;;;;;;;;;;14.71;99.01;100458.31;5048215;28;19998;-63
2022/10/15 10:25:25;;;;;;;;;;;;;;;14.72;99.17;100459.97;5045571;28;20343;-63
2022/10/15 10:27:50;;;;;;;;;;;;;;;14.72;99.41;100467.97;5046859;28;19928;-63
2022/10/15 10:30:15;;;;;;;;;;;;;;;14.69;99.38;100460.38;5043003;28;19917;-63
2022/10/15 10:32:42;;;;;;;;;;;;;;;14.66;99.37;100464.28;5042794;28;19923;-63
2022/10/15 10:35:18;;;;;;;;;;;;;;;14.67;99.20;100465.13;5042631;28;20016;-63
2022/10/15 10:37:43;;;;;;;;;;;;;;;14.67;99.21;100463.25;5036953;28;19967;-63
2022/10/15 10:40:24;;;;;;;;;;;;;;;14.70;99.73;100465.53;5042410;28;20405;-63
2022/10/15 10:43:08;;;;;;;;;;;;;;;14.70;99.87;100470.03;5045223;28;20372;-63
2022/10/15 10:45:33;;;;;;;;;;;;;;;14.68;100.00;100470.25;5050090;28;20427;-63
2022/10/15 10:48:16;;;;;;;;;;;;;;;14.66;100.00;100464.28;5049422;28;19917;-63
2022/10/15 10:50:42;;;;;;;;;;;;;;;14.68;100.00;100464.09;5045353;28;19917;-63
2022/10/15 10:53:20;;;;;;;;;;;;;;;14.67;100.00;100468.59;5047199;28;19916;-62
2022/10/15 10:55:45;;;;;;;;;;;;;;;14.68;100.00;100459.56;5046190;28;19974;-63
2022/10/15 10:58:14;;;;;;;;;;;;;;;14.72;100.00;100465.31;5048531;28;19920;-63
2022/10/15 11:00:41;;;;;;;;;;;;;;;14.73;100.00;100456.25;5044628;28;19962;-63
2022/10/15 11:03:21;;;;;;;;;;;;;;;14.77;100.00;100450.31;5046633;28;19951;-63
2022/10/15 11:05:49;;;;;;;;;;;;;;;14.83;100.00;100454.00;5054925;28;19928;-63
2022/10/15 11:08:29;;;;;;;;;;;;;;;14.87;100.00;100445.38;5060440;28;20399;-62
2022/10/15 11:10:57;;;;;;;;;;;;;;;14.92;100.00;100439.38;5045789;28;19917;-62
2022/10/15 11:13:37;;;;;;;;;;;;;;;14.97;100.00;100439.56;5054795;28;19917;-63
2022/10/15 11:16:07;;;;;;;;;;;;;;;15.03;100.00;100445.94;5050451;28;19971;-62
2022/10/15 11:18:48;;;;;;;;;;;;;;;15.05;100.00;100447.41;5052226;28;20368;-63
2022/10/15 11:21:18;;;;;;;;;;;;;;;15.06;100.00;100433.00;5047922;28;19923;-63
2022/10/15 11:24:02;;;;;;;;;;;;;;;15.08;100.00;100446.97;5052081;28;19916;-63
2022/10/15 11:26:36;;;;;;;;;;;;;;;15.10;100.00;100444.91;5046647;28;19920;-63
2022/10/15 11:29:05;;;;;;;;;;;;;;;15.11;100.00;100440.38;5049244;28;19952;-63
2022/10/15 11:31:43;;;;;;;;;;;;;;;15.12;100.00;100444.69;5052789;28;20419;-63
2022/10/15 11:34:17;;;;;;;;;;;;;;;15.15;100.00;100447.78;5058847;28;20007;-63
2022/10/15 11:36:48;;;;;;;;;;;;;;;15.21;100.00;100442.59;5056530;28;19916;-63
2022/10/15 11:39:16;;;;;;;;;;;;;;;15.24;100.00;100437.66;5054068;28;19966;-63
2022/10/15 11:42:00;;;;;;;;;;;;;;;15.30;100.00;100444.84;5054371;28;20531;-63
2022/10/15 11:44:25;;;;;;;;;;;;;;;15.34;100.00;100439.91;5041917;28;19917;-63
2022/10/15 11:46:51;;;;;;;;;;;;;;;15.38;100.00;100441.13;5046665;28;19928;-63
2022/10/15 11:49:22;;;;;;;;;;;;;;;15.40;100.00;100439.88;5048665;28;19923;-63
2022/10/15 11:52:05;;;;;;;;;;;;;;;15.43;100.00;100438.63;5042542;28;19917;-63
2022/10/15 11:54:37;;;;;;;;;;;;;;;15.46;100.00;100433.66;5055447;28;20399;-63
2022/10/15 11:57:03;;;;;;;;;;;;;;;15.47;100.00;100437.16;5046301;28;20265;-63
2022/10/15 11:59:39;;;;;;;;;;;;;;;15.49;100.00;100430.56;5045998;28;19932;-63
2022/10/15 12:02:11;;;;;;;;;;;;;;;15.52;100.00;100429.31;5050439;28;19920;-64
2022/10/15 12:04:45;;;;;;;;;;;;;;;15.57;100.00;100432.16;5049212;28;19929;-63
2022/10/15 12:07:14;;;;;;;;;;;;;;;15.60;100.00;100439.81;5053448;28;19921;-63
2022/10/15 12:09:43;;;;;;;;;;;;;;;15.62;100.00;100431.59;5050858;28;19948;-63
2022/10/15 12:12:20;;;;;;;;;;;;;;;15.64;100.00;100434.88;5049310;28;19925;-63
2022/10/15 12:14:51;;;;;;;;;;;;;;;15.68;100.00;100430.72;5047412;28;19916;-63
2022/10/15 12:17:29;;;;;;;;;;;;;;;15.74;100.00;100429.88;5053180;28;19917;-63
2022/10/15 12:19:59;;;;;;;;;;;;;;;15.82;100.00;100426.94;5034427;28;20061;-63
2022/10/15 12:22:32;;;;;;;;;;;;;;;15.91;100.00;100430.19;5049582;28;20412;-63
2022/10/15 12:24:57;;;;;;;;;;;;;;;15.97;100.00;100424.78;5045579;28;20312;-63
2022/10/15 12:27:24;;;;;;;;;;;;;;;16.03;100.00;100423.09;5055683;28;19979;-63
2022/10/15 12:29:58;;;;;;;;;;;;;;;16.11;100.00;100420.97;5047501;28;19921;-63
2022/10/15 12:32:25;;;;;;;;;;;;;;;16.19;100.00;100419.06;5043359;28;19983;-63
2022/10/15 12:34:54;;;;;;;;;;;;;;;16.24;100.00;100425.44;5044318;28;19917;-63